OISL  Lar  Airport

Lar, Iran

Add Bookmark
ICAO OISL
IATA LRR
Type Airport
Status Operational
Latitude
27° 40' 28" N
27.674700
Longitude
54° 22' 59" E
54.383301
Local (GMT +3.5 ) UTC
Dec 7, 2016 05:52 pm Dec 7, 2016 14:22
Sunrise-Sunset Local UTC
Begin Civil Twilight 06:03 am 02:33
Sunrise 06:29 am 02:59
Sunset 04:59 pm 13:29
End Civil Twilight 05:24 pm 13:54
VFR
VFR
MVFR
MVFR
IFR
IFR
LIFR
LIFR
Unknown
No Data

Current Weather

METAR Observed VFR
OISL 071400Z 00000KT CAVOK 23/07 Q1017 Wed, Dec 7, 2016 @ 14:00 UTC
(22 Minutes ago)
Visual Flight Rules
Wind Visibility Conditions
Calm 10 km or more
  • No significant weather
Temperatures Readings Precipitation
Current Temp
23°C
73°F
Dewpoint
7°C
45°F
Humidity 36%
Altimeter 30.03" Hg
Sea Level Pressure 1,017 mb
Field Elevation
805 m
2,641 ft
None Recorded

Forecast Weather

TAF
TAF OISL 071100Z 0712/0818 24005MPS CAVOK
From To
Wed, Dec 7, 2016 @ 12:00 UTC Thu, Dec 8, 2016 @ 18:00 UTC
Wind Visibility Conditions
240° at 10 knots (19 kph) 10 km or more
  • No significant weather
-
-

CheckWX.com is intended as a tool to help pilots better visualize weather data. It is not intended as a substitute for an official weather briefing obtained from a Flight Service Station. CheckWX.com does not meet the FAA requirements for an official pre-flight weather briefing. Therefore, it's important that pilots still call and obtain an official FSS pre-flight weather briefing.

© 2007-2016 CheckWX.com
14:22:41 UTC